Time;durP1;ratioP1;P1;durP2;ratioP2;P2;SDS_P1;SDS_P2;PMS_P1;PMS_P2;Temp;Humidity;BMP_temperature;BMP_pressure;BME280_temperature;BME280_humidity;BME280_pressure;Samples;Min_cycle;Max_cycle;Signal;HPM_P1;HPM_P2
2021/09/08 00:01:22;;;;;;;11.80;8.43;;;15.00;99.90;;;;;;4975306;28;20418;-69
2021/09/08 00:03:48;;;;;;;8.63;7.73;;;14.90;99.90;;;;;;4975382;28;20176;-70
2021/09/08 00:06:13;;;;;;;9.47;6.37;;;14.80;99.90;;;;;;4974913;28;20190;-70
2021/09/08 00:08:39;;;;;;;10.30;7.60;;;14.90;99.90;;;;;;4974796;28;20303;-76
2021/09/08 00:11:05;;;;;;;8.83;7.70;;;14.90;99.90;;;;;;4975180;28;20561;-68
2021/09/08 00:13:31;;;;;;;7.60;6.90;;;14.80;99.90;;;;;;4975094;28;20808;-69
2021/09/08 00:15:56;;;;;;;8.60;7.37;;;14.80;99.90;;;;;;4975331;28;20630;-69
2021/09/08 00:18:22;;;;;;;12.33;7.60;;;14.80;99.90;;;;;;4956967;28;20229;-69
2021/09/08 00:20:48;;;;;;;8.67;6.77;;;14.80;99.90;;;;;;4974949;28;20427;-68
2021/09/08 00:23:14;;;;;;;6.93;6.27;;;14.80;99.90;;;;;;4957585;28;20609;-70
2021/09/08 00:25:39;;;;;;;7.30;6.30;;;14.70;99.90;;;;;;4957623;28;20183;-69
2021/09/08 00:28:05;;;;;;;8.00;7.20;;;14.70;99.90;;;;;;4974113;28;20187;-69
2021/09/08 00:30:31;;;;;;;7.90;7.10;;;14.60;99.90;;;;;;4974524;28;20215;-69
2021/09/08 00:32:57;;;;;;;8.03;6.93;;;14.60;99.90;;;;;;4974960;28;20431;-68
2021/09/08 00:35:23;;;;;;;9.30;7.10;;;14.60;99.90;;;;;;4975045;28;20171;-69
2021/09/08 00:37:50;;;;;;;8.37;7.50;;;14.50;99.90;;;;;;4974319;28;20419;-69
2021/09/08 00:40:16;;;;;;;9.43;7.33;;;14.50;99.90;;;;;;4974702;28;20290;-70
2021/09/08 00:42:45;;;;;;;8.17;7.37;;;14.50;99.90;;;;;;4974214;28;20446;-69
2021/09/08 00:45:12;;;;;;;7.77;6.97;;;14.50;99.90;;;;;;4974306;28;20424;-69
2021/09/08 00:47:38;;;;;;;7.63;6.43;;;14.50;99.90;;;;;;4974251;28;20921;-70
2021/09/08 00:50:04;;;;;;;9.50;7.57;;;14.50;99.90;;;;;;4974323;28;20486;-69
2021/09/08 00:52:30;;;;;;;6.60;5.90;;;14.50;99.90;;;;;;4974672;28;20414;-69
2021/09/08 00:54:58;;;;;;;7.60;6.37;;;14.50;99.90;;;;;;4974713;28;20418;-69
2021/09/08 00:57:28;;;;;;;8.30;7.23;;;14.40;99.90;;;;;;4973790;28;20433;-69
2021/09/08 00:59:54;;;;;;;10.17;7.00;;;14.40;99.90;;;;;;4974412;28;20449;-69
2021/09/08 01:02:19;;;;;;;7.87;6.60;;;14.30;99.90;;;;;;4974334;28;20424;-69
2021/09/08 01:04:45;;;;;;;8.77;7.30;;;14.30;99.90;;;;;;4974518;28;20179;-69
2021/09/08 01:07:11;;;;;;;10.00;7.53;;;14.20;99.90;;;;;;4973985;28;20253;-69
2021/09/08 01:09:37;;;;;;;7.23;6.40;;;14.20;99.90;;;;;;4974229;28;20199;-69
2021/09/08 01:12:03;;;;;;;7.67;6.97;;;14.10;99.90;;;;;;4973818;28;20442;-69
2021/09/08 01:14:29;;;;;;;8.70;6.80;;;14.10;99.90;;;;;;4974307;28;20410;-69
2021/09/08 01:16:56;;;;;;;6.83;6.13;;;14.10;99.90;;;;;;4974088;28;20429;-70
2021/09/08 01:19:22;;;;;;;8.10;7.30;;;14.10;99.90;;;;;;4974273;28;20199;-69
2021/09/08 01:21:49;;;;;;;9.73;6.80;;;14.10;99.90;;;;;;4974355;28;20420;-69
2021/09/08 01:24:15;;;;;;;8.60;7.80;;;14.10;99.90;;;;;;4974318;28;20430;-70
2021/09/08 01:26:46;;;;;;;11.27;8.47;;;14.10;99.90;;;;;;4973412;28;20707;-69
2021/09/08 01:29:11;;;;;;;10.03;7.93;;;14.10;99.90;;;;;;4956720;28;20467;-69
2021/09/08 01:31:37;;;;;;;8.50;6.67;;;14.10;99.90;;;;;;4974267;28;20439;-69
2021/09/08 01:34:06;;;;;;;7.97;7.17;;;14.10;99.90;;;;;;4974189;28;20660;-69
2021/09/08 01:36:38;;;;;;;8.17;6.90;;;14.00;99.90;;;;;;4974043;28;20787;-70
2021/09/08 01:39:04;;;;;;;8.83;7.13;;;13.90;99.90;;;;;;4956586;28;20779;-70
2021/09/08 01:41:30;;;;;;;7.70;6.93;;;13.90;99.90;;;;;;4973755;28;20426;-69
2021/09/08 01:43:56;;;;;;;11.13;7.80;;;13.90;99.90;;;;;;4973858;28;20417;-70
2021/09/08 01:46:23;;;;;;;10.27;7.80;;;13.90;99.90;;;;;;4974012;28;20433;-69
2021/09/08 01:48:49;;;;;;;9.07;7.37;;;13.90;99.90;;;;;;4973396;28;20213;-69
2021/09/08 01:51:15;;;;;;;7.73;6.90;;;13.90;99.90;;;;;;4974073;28;20466;-69
2021/09/08 01:53:41;;;;;;;8.63;7.73;;;13.90;99.90;;;;;;4974059;28;20900;-69
2021/09/08 01:56:09;;;;;;;8.83;7.47;;;13.90;99.90;;;;;;4973606;28;20434;-69
2021/09/08 01:58:35;;;;;;;7.53;6.80;;;13.80;99.90;;;;;;4973502;28;20434;-70
2021/09/08 02:01:01;;;;;;;7.13;6.17;;;13.80;99.90;;;;;;4974161;28;20422;-69
2021/09/08 02:03:26;;;;;;;8.60;6.90;;;13.70;99.90;;;;;;4974089;28;20418;-70
2021/09/08 02:05:52;;;;;;;8.17;7.07;;;13.70;99.90;;;;;;4973847;28;20637;-70
2021/09/08 02:08:18;;;;;;;9.20;7.27;;;13.70;99.90;;;;;;4973482;28;20187;-69
2021/09/08 02:10:43;;;;;;;7.90;6.63;;;13.70;99.90;;;;;;4973652;28;20202;-69
2021/09/08 02:13:09;;;;;;;8.40;6.90;;;13.60;99.90;;;;;;4974074;28;20205;-69
2021/09/08 02:15:35;;;;;;;8.50;6.90;;;13.60;99.90;;;;;;4975613;28;20174;-69
2021/09/08 02:18:01;;;;;;;7.23;6.17;;;13.60;99.90;;;;;;4976526;28;20961;-69
2021/09/08 02:20:26;;;;;;;9.13;7.60;;;13.60;99.90;;;;;;4977164;28;20844;-70
2021/09/08 02:22:52;;;;;;;10.07;7.30;;;13.60;99.90;;;;;;4977111;28;20206;-69
2021/09/08 02:25:18;;;;;;;8.90;8.00;;;13.50;99.90;;;;;;4977072;28;20177;-68
2021/09/08 02:27:43;;;;;;;8.70;7.00;;;13.50;99.90;;;;;;4976726;28;20186;-69
2021/09/08 02:30:10;;;;;;;9.93;6.60;;;13.50;99.90;;;;;;4977061;28;20264;-69
2021/09/08 02:32:36;;;;;;;8.30;7.50;;;13.50;99.90;;;;;;4976648;28;20242;-69
2021/09/08 02:35:02;;;;;;;7.80;7.00;;;13.40;99.90;;;;;;4977001;28;20945;-69
2021/09/08 02:37:28;;;;;;;9.37;8.40;;;13.40;99.90;;;;;;4976774;28;20423;-69
2021/09/08 02:39:53;;;;;;;9.57;6.90;;;13.40;99.90;;;;;;4976956;28;20525;-69
2021/09/08 02:42:19;;;;;;;15.93;7.00;;;13.40;99.90;;;;;;4976797;28;20184;-69
2021/09/08 02:44:45;;;;;;;11.53;8.27;;;13.40;99.90;;;;;;4976839;28;20176;-69
2021/09/08 02:47:11;;;;;;;9.27;8.00;;;13.30;99.90;;;;;;4976186;28;20700;-69
2021/09/08 02:49:37;;;;;;;8.60;7.70;;;13.30;99.90;;;;;;4976325;28;20218;-69
2021/09/08 02:52:03;;;;;;;8.93;7.10;;;13.30;99.90;;;;;;4976653;28;20443;-69
2021/09/08 02:54:29;;;;;;;9.50;8.60;;;13.20;99.90;;;;;;4976598;28;20170;-68
2021/09/08 02:56:54;;;;;;;9.10;8.20;;;13.20;99.90;;;;;;4976291;28;20426;-69
2021/09/08 02:59:20;;;;;;;7.80;6.73;;;13.20;99.90;;;;;;4976515;28;20194;-69
2021/09/08 03:01:46;;;;;;;8.43;7.37;;;13.20;99.90;;;;;;4976315;28;20541;-70
2021/09/08 03:04:11;;;;;;;8.10;6.47;;;13.20;99.90;;;;;;4976392;28;20714;-69
2021/09/08 03:06:37;;;;;;;9.17;7.20;;;13.20;99.90;;;;;;4976140;28;20483;-70
2021/09/08 03:09:03;;;;;;;8.93;6.80;;;13.10;99.90;;;;;;4976182;28;20546;-69
2021/09/08 03:11:29;;;;;;;9.07;7.30;;;13.10;99.90;;;;;;4976874;28;20226;-69
2021/09/08 03:13:55;;;;;;;8.97;7.33;;;13.00;99.90;;;;;;4976406;28;20181;-69
2021/09/08 03:16:21;;;;;;;7.70;7.00;;;13.00;99.90;;;;;;4975977;28;20217;-70
2021/09/08 03:18:46;;;;;;;7.43;6.73;;;13.00;99.90;;;;;;4958469;28;20481;-69
2021/09/08 03:21:12;;;;;;;8.50;6.70;;;13.00;99.90;;;;;;4976284;28;20178;-69
2021/09/08 03:23:38;;;;;;;9.40;8.40;;;13.00;99.90;;;;;;4976236;28;20436;-69
2021/09/08 03:26:03;;;;;;;7.20;6.40;;;12.90;99.90;;;;;;4975605;28;20565;-69
2021/09/08 03:28:29;;;;;;;9.40;7.07;;;12.90;99.90;;;;;;4975420;28;20285;-70
2021/09/08 03:30:55;;;;;;;6.77;6.13;;;12.90;99.90;;;;;;4975973;28;20201;-69
2021/09/08 03:33:20;;;;;;;11.70;9.10;;;12.90;99.90;;;;;;4975986;28;20178;-69
2021/09/08 03:35:46;;;;;;;8.50;7.27;;;12.90;99.90;;;;;;4975743;28;20169;-70
2021/09/08 03:38:12;;;;;;;10.40;8.07;;;12.90;99.90;;;;;;4975274;28;20208;-70
2021/09/08 03:40:38;;;;;;;8.83;7.03;;;12.90;99.90;;;;;;4975789;28;20176;-70
2021/09/08 03:43:04;;;;;;;13.27;7.50;;;12.90;99.90;;;;;;4975221;28;20187;-72
2021/09/08 03:45:29;;;;;;;8.63;6.90;;;12.90;99.90;;;;;;4975763;28;20733;-70
2021/09/08 03:47:55;;;;;;;10.57;7.13;;;12.80;99.90;;;;;;4975245;28;20235;-70
2021/09/08 03:50:21;;;;;;;9.43;7.97;;;12.80;99.90;;;;;;4975254;28;20219;-70
2021/09/08 03:52:46;;;;;;;8.30;7.47;;;12.80;99.90;;;;;;4975484;28;20181;-70
2021/09/08 03:55:12;;;;;;;8.90;8.00;;;12.80;99.90;;;;;;4975354;28;20182;-69
2021/09/08 03:57:38;;;;;;;9.60;7.60;;;12.70;99.90;;;;;;4975073;28;20173;-70
2021/09/08 04:00:07;;;;;;;11.87;8.97;;;12.70;99.90;;;;;;4975177;28;20213;-70
2021/09/08 04:02:33;;;;;;;9.43;8.10;;;12.70;99.90;;;;;;4975390;28;20639;-70
2021/09/08 04:04:59;;;;;;;8.73;7.13;;;12.70;99.90;;;;;;4975256;28;20419;-68
2021/09/08 04:07:26;;;;;;;9.93;8.83;;;12.80;99.90;;;;;;4957669;28;20187;-69
2021/09/08 04:09:52;;;;;;;9.48;8.57;;;12.70;99.90;;;;;;4975016;28;20220;-70
2021/09/08 04:12:17;;;;;;;10.30;7.70;;;12.80;99.90;;;;;;4975313;28;20168;-70
2021/09/08 04:14:43;;;;;;;9.80;7.80;;;12.80;99.90;;;;;;4957929;28;20436;-70
2021/09/08 04:17:09;;;;;;;7.70;6.90;;;12.80;99.90;;;;;;4974710;28;20170;-69
2021/09/08 04:19:35;;;;;;;9.40;8.27;;;12.70;99.90;;;;;;4975161;28;20196;-70
2021/09/08 04:22:00;;;;;;;9.13;7.40;;;12.80;99.90;;;;;;4974940;28;20181;-70
2021/09/08 04:24:26;;;;;;;10.90;8.83;;;12.80;99.90;;;;;;4975074;28;20173;-69
2021/09/08 04:26:52;;;;;;;9.43;8.37;;;12.80;99.90;;;;;;4974375;28;20720;-70
2021/09/08 04:29:17;;;;;;;10.40;8.90;;;12.70;99.90;;;;;;4974683;28;20724;-70
2021/09/08 04:31:43;;;;;;;10.53;8.03;;;12.70;99.90;;;;;;4974905;28;20173;-71
2021/09/08 04:34:09;;;;;;;10.30;9.20;;;12.70;99.90;;;;;;4974582;28;20177;-70
2021/09/08 04:36:35;;;;;;;7.80;7.00;;;12.60;99.90;;;;;;4974614;28;20169;-74
2021/09/08 04:39:00;;;;;;;8.93;7.60;;;12.60;99.90;;;;;;4974051;28;20272;-69
2021/09/08 04:41:28;;;;;;;10.00;8.37;;;12.60;99.90;;;;;;4974778;28;20404;-70
2021/09/08 04:43:54;;;;;;;10.15;9.02;;;12.50;99.90;;;;;;4957322;28;20833;-69
2021/09/08 04:46:20;;;;;;;10.23;7.83;;;12.50;99.90;;;;;;4974641;28;20164;-70
2021/09/08 04:48:46;;;;;;;9.70;8.10;;;12.50;99.90;;;;;;4973683;28;20471;-70
2021/09/08 04:51:11;;;;;;;12.43;8.47;;;12.40;99.90;;;;;;4974727;28;20535;-67
2021/09/08 04:53:37;;;;;;;14.13;8.50;;;12.30;99.90;;;;;;4974950;28;20166;-69
2021/09/08 04:56:04;;;;;;;11.53;9.00;;;12.30;99.90;;;;;;4974466;28;20635;-69
2021/09/08 04:58:30;;;;;;;10.33;8.40;;;12.30;99.90;;;;;;4974232;28;20206;-69
2021/09/08 05:00:56;;;;;;;9.33;7.87;;;12.30;99.90;;;;;;4974536;28;20378;-70
2021/09/08 05:03:21;;;;;;;10.67;7.80;;;12.30;99.90;;;;;;4957030;28;20214;-69
2021/09/08 05:05:48;;;;;;;10.47;8.00;;;12.30;99.90;;;;;;4957246;28;20779;-68
2021/09/08 05:08:14;;;;;;;12.30;9.60;;;12.30;99.90;;;;;;4974165;28;20406;-69
2021/09/08 05:10:40;;;;;;;11.87;6.93;;;12.30;99.90;;;;;;4956870;28;20307;-68
2021/09/08 05:13:06;;;;;;;8.77;7.50;;;12.40;99.90;;;;;;4956530;28;20185;-68
2021/09/08 05:15:44;;;;;;;11.10;7.90;;;12.50;99.90;;;;;;4974523;28;20574;-69
2021/09/08 05:18:16;;;;;;;10.90;8.90;;;12.60;99.90;;;;;;4955955;28;20241;-68
2021/09/08 05:20:43;;;;;;;9.70;8.70;;;12.70;99.90;;;;;;4956565;28;20193;-68
2021/09/08 05:23:09;;;;;;;13.67;9.87;;;12.90;99.90;;;;;;4973989;28;20193;-67
2021/09/08 05:25:35;;;;;;;11.03;9.60;;;13.00;99.90;;;;;;4973738;28;20564;-68
2021/09/08 05:28:00;;;;;;;12.17;9.50;;;13.00;99.90;;;;;;4978701;28;20553;-70
2021/09/08 05:30:26;;;;;;;8.87;7.47;;;13.00;99.90;;;;;;4966814;28;20212;-69
2021/09/08 05:32:52;;;;;;;10.80;8.77;;;13.00;99.90;;;;;;4978266;28;20183;-69
2021/09/08 05:35:17;;;;;;;9.00;8.10;;;13.00;99.90;;;;;;4990823;28;20187;-69
2021/09/08 05:37:44;;;;;;;10.77;8.83;;;13.00;99.90;;;;;;4993093;28;20233;-69
2021/09/08 05:40:10;;;;;;;14.40;8.47;;;13.10;99.90;;;;;;4991410;28;20205;-66
2021/09/08 05:42:37;;;;;;;9.60;7.73;;;13.20;99.90;;;;;;4987780;28;20394;-71
2021/09/08 05:45:03;;;;;;;18.40;10.30;;;13.30;99.90;;;;;;4987840;28;20416;-71
2021/09/08 05:47:29;;;;;;;9.60;7.53;;;13.30;99.90;;;;;;4973501;28;20395;-69
2021/09/08 05:49:55;;;;;;;10.70;8.00;;;13.40;99.90;;;;;;4976024;28;20900;-70
2021/09/08 05:52:20;;;;;;;9.07;8.10;;;13.60;99.90;;;;;;4977567;28;20222;-70
2021/09/08 05:54:46;;;;;;;12.80;8.30;;;13.70;99.90;;;;;;4977337;28;20203;-70
2021/09/08 05:57:12;;;;;;;11.00;8.03;;;13.70;99.90;;;;;;4977037;28;20206;-71
2021/09/08 05:59:37;;;;;;;8.80;6.83;;;13.80;99.90;;;;;;4977078;28;20210;-73
2021/09/08 06:02:03;;;;;;;10.87;8.27;;;14.00;99.90;;;;;;4995203;28;20241;-72
2021/09/08 06:04:29;;;;;;;8.27;6.73;;;14.20;99.90;;;;;;4985287;28;20240;-71
2021/09/08 06:06:57;;;;;;;8.97;7.83;;;14.40;99.90;;;;;;4974725;28;20187;-73
2021/09/08 06:09:23;;;;;;;10.97;8.80;;;14.50;99.90;;;;;;4957706;28;20287;-74
2021/09/08 06:11:49;;;;;;;8.63;7.53;;;14.60;99.90;;;;;;4976245;28;20401;-73
2021/09/08 06:14:15;;;;;;;8.10;6.57;;;14.70;99.90;;;;;;4974746;28;20478;-74
2021/09/08 06:16:41;;;;;;;7.53;6.73;;;14.80;99.90;;;;;;4975252;28;20455;-73
2021/09/08 06:19:07;;;;;;;7.90;7.00;;;14.90;99.90;;;;;;4982679;28;20208;-73
2021/09/08 06:21:33;;;;;;;7.57;6.70;;;15.10;99.90;;;;;;4988039;28;20653;-73
2021/09/08 06:23:59;;;;;;;9.20;6.53;;;15.20;99.90;;;;;;4976898;28;20435;-71
2021/09/08 06:26:24;;;;;;;9.07;7.20;;;15.30;99.90;;;;;;4977281;28;20411;-69
2021/09/08 06:28:52;;;;;;;8.03;6.60;;;15.40;99.90;;;;;;4976246;28;20204;-71
2021/09/08 06:31:19;;;;;;;8.63;7.50;;;15.50;99.90;;;;;;4957547;28;20219;-72
2021/09/08 06:33:45;;;;;;;7.50;6.47;;;15.60;99.90;;;;;;4959463;28;20821;-72
2021/09/08 06:36:11;;;;;;;6.50;5.90;;;15.70;99.90;;;;;;4977010;28;20735;-72
2021/09/08 06:38:37;;;;;;;8.90;7.33;;;15.80;99.90;;;;;;4976498;28;20405;-67
2021/09/08 06:41:03;;;;;;;9.30;7.30;;;16.00;99.90;;;;;;4976782;28;20231;-70
2021/09/08 06:43:29;;;;;;;10.13;7.40;;;16.10;99.90;;;;;;4976582;28;20206;-71
2021/09/08 06:45:55;;;;;;;10.70;6.97;;;16.10;99.90;;;;;;4976579;28;20770;-68
2021/09/08 06:48:20;;;;;;;7.03;5.87;;;16.30;99.90;;;;;;4976257;28;20527;-68
2021/09/08 06:50:46;;;;;;;8.83;6.97;;;16.30;99.90;;;;;;4975121;28;20466;-69
2021/09/08 06:53:12;;;;;;;9.40;6.13;;;16.40;99.90;;;;;;4974522;28;20172;-69
2021/09/08 06:55:37;;;;;;;8.37;6.93;;;16.40;99.90;;;;;;4974522;28;20223;-68
2021/09/08 06:58:03;;;;;;;6.77;5.93;;;16.50;99.90;;;;;;4973929;28;20268;-68
2021/09/08 07:00:29;;;;;;;7.10;6.40;;;16.60;99.90;;;;;;4973625;28;20173;-68
2021/09/08 07:02:54;;;;;;;9.00;6.40;;;16.80;99.90;;;;;;4974443;28;20173;-68
2021/09/08 07:05:21;;;;;;;7.00;5.80;;;16.90;99.90;;;;;;4974634;28;20188;-69
2021/09/08 07:07:47;;;;;;;9.07;6.07;;;17.00;99.90;;;;;;4976055;28;20173;-68
2021/09/08 07:10:13;;;;;;;19.90;6.80;;;17.10;99.90;;;;;;4976131;28;20427;-68
2021/09/08 07:12:38;;;;;;;6.30;5.70;;;17.30;99.90;;;;;;4975929;28;21029;-69
2021/09/08 07:15:05;;;;;;;7.17;5.30;;;17.50;99.90;;;;;;4976193;28;20175;-69
2021/09/08 07:17:30;;;;;;;5.63;4.50;;;17.70;99.90;;;;;;4975925;28;20174;-68
2021/09/08 07:19:56;;;;;;;6.93;6.17;;;18.00;99.90;;;;;;4976285;28;20476;-68
2021/09/08 07:22:22;;;;;;;6.53;5.93;;;18.30;99.90;;;;;;4976238;28;20172;-67
2021/09/08 07:24:47;;;;;;;8.10;5.93;;;18.60;99.90;;;;;;4976251;28;20172;-70
2021/09/08 07:27:13;;;;;;;7.00;4.80;;;18.80;99.90;;;;;;4975246;28;20936;-68
2021/09/08 07:29:39;;;;;;;6.50;5.87;;;18.90;99.90;;;;;;4975759;28;20203;-67
2021/09/08 07:32:05;;;;;;;5.50;4.87;;;19.00;99.90;;;;;;4958607;28;20172;-67
2021/09/08 07:34:31;;;;;;;6.57;5.40;;;19.00;99.90;;;;;;4975985;28;20664;-68
2021/09/08 07:36:57;;;;;;;6.47;5.87;;;19.00;99.90;;;;;;4975520;28;20406;-70
2021/09/08 07:39:23;;;;;;;5.47;4.97;;;19.00;99.90;;;;;;4975563;28;20402;-68
2021/09/08 07:41:48;;;;;;;5.53;4.93;;;19.10;99.90;;;;;;4956881;29;20180;-66
2021/09/08 07:44:14;;;;;;;6.10;5.17;;;19.10;99.90;;;;;;4956444;29;20397;-68
2021/09/08 07:46:40;;;;;;;5.30;4.73;;;19.30;99.90;;;;;;4956194;29;20673;-69
2021/09/08 07:49:06;;;;;;;8.90;5.23;;;19.40;99.90;;;;;;4956137;28;20456;-67
2021/09/08 07:51:32;;;;;;;6.10;5.50;;;19.70;99.90;;;;;;4956086;29;20209;-68
2021/09/08 07:53:59;;;;;;;5.10;4.23;;;20.20;99.90;;;;;;4956122;29;20666;-69
2021/09/08 07:56:25;;;;;;;6.03;5.23;;;20.80;99.90;;;;;;4973771;28;20192;-69
2021/09/08 07:58:51;;;;;;;6.63;6.00;;;21.60;99.90;;;;;;4975005;28;20402;-68
2021/09/08 08:01:16;;;;;;;6.30;5.70;;;22.50;99.90;;;;;;4975350;28;20930;-69
2021/09/08 08:03:42;;;;;;;4.70;4.30;;;23.60;99.00;;;;;;4975516;28;20441;-68
2021/09/08 08:06:08;;;;;;;4.70;4.30;;;24.90;95.20;;;;;;4975436;28;20179;-69
2021/09/08 08:08:33;;;;;;;4.67;4.33;;;26.00;92.60;;;;;;4974605;28;20674;-68
2021/09/08 08:10:59;;;;;;;5.30;4.80;;;26.70;90.30;;;;;;4974925;28;20650;-69
2021/09/08 08:13:25;;;;;;;5.57;4.70;;;27.40;86.20;;;;;;4975219;28;20647;-70
2021/09/08 08:15:51;;;;;;;6.70;4.87;;;27.80;84.50;;;;;;4975041;28;20254;-68
2021/09/08 08:18:17;;;;;;;5.93;5.03;;;28.20;81.50;;;;;;4974884;28;20180;-70
2021/09/08 08:20:42;;;;;;;5.30;4.80;;;28.50;80.00;;;;;;4974841;28;20168;-69
2021/09/08 08:23:08;;;;;;;6.67;6.07;;;28.90;78.20;;;;;;4975043;28;20375;-69
2021/09/08 08:25:34;;;;;;;6.13;5.53;;;29.20;76.20;;;;;;4974744;28;20180;-67
2021/09/08 08:28:02;;;;;;;5.60;4.90;;;29.50;75.90;;;;;;4974558;28;20169;-71
2021/09/08 08:30:28;;;;;;;6.00;5.40;;;29.60;74.00;;;;;;4974750;28;20216;-68
2021/09/08 08:32:54;;;;;;;5.47;4.97;;;29.70;73.30;;;;;;4975148;28;20416;-69
2021/09/08 08:35:19;;;;;;;6.63;5.60;;;29.90;73.30;;;;;;4974988;28;20414;-68
2021/09/08 08:37:46;;;;;;;5.37;4.90;;;30.30;71.10;;;;;;4974138;28;20180;-70
2021/09/08 08:40:12;;;;;;;6.33;5.73;;;30.60;70.60;;;;;;4974410;28;20207;-68
2021/09/08 08:42:39;;;;;;;5.63;5.10;;;30.60;69.50;;;;;;4974544;28;20432;-68
2021/09/08 08:45:07;;;;;;;5.20;4.63;;;30.40;70.30;;;;;;4974676;28;20458;-69
2021/09/08 08:47:34;;;;;;;5.27;4.77;;;30.60;69.90;;;;;;4974226;28;20165;-69
2021/09/08 08:50:00;;;;;;;4.87;4.47;;;30.70;68.40;;;;;;4974204;28;20495;-68
2021/09/08 08:52:26;;;;;;;5.60;5.20;;;31.00;67.20;;;;;;4974114;28;20463;-69
2021/09/08 08:54:52;;;;;;;6.37;5.77;;;31.30;66.10;;;;;;4974203;28;20215;-68
2021/09/08 08:57:19;;;;;;;6.10;4.90;;;31.40;64.70;;;;;;4974010;28;20799;-68
2021/09/08 08:59:46;;;;;;;5.47;4.97;;;31.20;64.90;;;;;;4974398;28;20227;-69
2021/09/08 09:02:32;;;;;;;5.00;4.60;;;31.30;66.00;;;;;;4974398;28;20408;-68
2021/09/08 09:05:00;;;;;;;5.93;5.33;;;31.60;65.80;;;;;;4957096;28;20906;-70
2021/09/08 09:07:33;;;;;;;5.60;4.83;;;32.20;64.00;;;;;;4973739;28;20434;-69
2021/09/08 09:10:08;;;;;;;4.90;4.50;;;32.20;61.40;;;;;;4974269;28;20545;-70
2021/09/08 09:12:40;;;;;;;5.37;4.93;;;32.30;61.90;;;;;;4974251;28;20462;-70
2021/09/08 09:15:11;;;;;;;5.63;5.20;;;32.70;61.40;;;;;;4956840;28;20428;-69
2021/09/08 09:17:38;;;;;;;5.50;5.07;;;33.20;59.30;;;;;;4973926;28;20890;-68
2021/09/08 09:20:07;;;;;;;6.00;5.50;;;33.20;58.70;;;;;;4974097;28;20439;-67
2021/09/08 09:22:37;;;;;;;5.70;5.20;;;32.90;59.00;;;;;;4973851;28;20511;-68
2021/09/08 09:25:04;;;;;;;5.40;4.90;;;32.70;59.10;;;;;;4977082;28;20781;-70
2021/09/08 09:27:38;;;;;;;6.40;5.80;;;32.80;59.60;;;;;;4977823;28;20778;-67
2021/09/08 09:30:07;;;;;;;5.10;4.70;;;33.40;59.10;;;;;;4978074;28;20905;-67
2021/09/08 09:32:40;;;;;;;4.67;4.23;;;34.00;58.40;;;;;;4978038;28;20408;-69
2021/09/08 09:35:08;;;;;;;4.77;4.30;;;33.90;57.60;;;;;;4978216;28;20411;-69
2021/09/08 09:37:35;;;;;;;6.10;5.20;;;34.10;57.10;;;;;;4977207;28;20427;-70
2021/09/08 09:40:03;;;;;;;6.50;5.90;;;33.90;57.10;;;;;;4977823;28;20525;-71
2021/09/08 09:42:32;;;;;;;5.67;5.17;;;33.80;57.30;;;;;;4978085;28;20412;-70
2021/09/08 09:45:06;;;;;;;6.90;4.97;;;33.50;57.40;;;;;;4977740;28;20411;-70
2021/09/08 09:47:36;;;;;;;5.30;4.73;;;33.20;57.60;;;;;;4959949;28;21006;-69
2021/09/08 09:50:06;;;;;;;5.57;5.07;;;33.20;57.70;;;;;;4977189;28;20829;-69
2021/09/08 09:52:36;;;;;;;5.90;5.27;;;33.20;58.00;;;;;;4977557;28;20423;-71
2021/09/08 09:55:07;;;;;;;5.53;5.13;;;33.00;57.70;;;;;;4977695;28;20416;-69
2021/09/08 09:57:33;;;;;;;7.50;5.10;;;32.90;58.60;;;;;;4977391;28;20412;-70
2021/09/08 10:00:00;;;;;;;5.70;5.10;;;32.80;57.60;;;;;;4977558;28;20440;-69
2021/09/08 10:02:26;;;;;;;4.80;4.50;;;33.00;58.00;;;;;;4977600;28;20473;-69
2021/09/08 10:04:53;;;;;;;4.80;4.40;;;33.10;58.10;;;;;;4977266;28;20435;-70
2021/09/08 10:07:22;;;;;;;4.80;4.40;;;33.10;57.70;;;;;;4977141;28;20403;-71
2021/09/08 10:09:53;;;;;;;5.80;5.30;;;32.80;57.60;;;;;;4977488;28;20466;-73
2021/09/08 10:12:23;;;;;;;5.23;4.73;;;32.50;58.00;;;;;;4976908;28;20439;-71
2021/09/08 10:14:50;;;;;;;5.00;4.60;;;32.10;58.80;;;;;;4977084;28;20403;-71
2021/09/08 10:17:19;;;;;;;7.27;5.43;;;32.20;58.60;;;;;;4976736;28;20404;-71
2021/09/08 10:19:45;;;;;;;5.20;4.73;;;32.50;58.40;;;;;;4976565;28;20443;-72
2021/09/08 10:22:14;;;;;;;5.30;4.90;;;32.70;58.30;;;;;;4977051;28;20454;-71
2021/09/08 10:24:47;;;;;;;5.10;4.60;;;33.00;57.00;;;;;;4912708;28;20436;-70
2021/09/08 10:27:21;;;;;;;4.67;4.37;;;32.80;56.50;;;;;;4976631;28;20408;-70
2021/09/08 10:29:50;;;;;;;4.90;4.50;;;32.40;57.40;;;;;;4976804;28;20557;-70
2021/09/08 10:32:19;;;;;;;5.70;4.47;;;32.10;57.80;;;;;;4977013;28;20444;-71
2021/09/08 10:34:46;;;;;;;4.90;4.50;;;32.00;57.80;;;;;;4976435;28;20427;-70
2021/09/08 10:37:12;;;;;;;5.23;4.73;;;32.00;58.00;;;;;;4958796;28;20503;-71
2021/09/08 10:39:40;;;;;;;6.23;5.70;;;32.30;58.20;;;;;;4976854;28;20485;-72
2021/09/08 10:42:06;;;;;;;5.60;4.90;;;32.30;57.50;;;;;;4977071;28;20454;-71
2021/09/08 10:44:50;;;;;;;5.00;4.50;;;32.10;57.40;;;;;;4976605;28;20839;-72
2021/09/08 10:47:37;;;;;;;4.40;4.00;;;31.80;58.00;;;;;;4976561;28;20539;-75
2021/09/08 10:50:07;;;;;;;4.93;4.47;;;31.80;58.50;;;;;;4976180;28;20475;-71
2021/09/08 10:52:36;;;;;;;5.20;4.80;;;31.70;58.90;;;;;;4976579;28;20411;-72
2021/09/08 10:55:01;;;;;;;4.73;4.30;;;31.70;58.60;;;;;;4976384;28;20510;-72
2021/09/08 10:57:48;;;;;;;5.70;5.20;;;31.70;59.50;;;;;;4958438;28;20964;-72
2021/09/08 11:00:26;;;;;;;4.70;4.30;;;31.70;59.00;;;;;;4976381;28;20856;-72
2021/09/08 11:02:51;;;;;;;4.80;4.07;;;31.70;58.50;;;;;;4976363;28;20393;-72
2021/09/08 11:05:18;;;;;;;4.87;4.40;;;31.50;58.90;;;;;;4976367;28;20441;-70
2021/09/08 11:07:47;;;;;;;4.57;4.20;;;31.30;58.40;;;;;;4976075;28;20168;-71
2021/09/08 11:10:22;;;;;;;5.23;4.70;;;31.00;59.20;;;;;;4976124;28;20442;-74
2021/09/08 11:12:50;;;;;;;4.87;4.47;;;30.40;59.80;;;;;;4975839;28;20424;-69
2021/09/08 11:15:18;;;;;;;5.13;4.63;;;29.70;60.30;;;;;;4958762;28;20827;-71
2021/09/08 11:17:52;;;;;;;5.20;4.70;;;28.90;62.90;;;;;;4975780;28;20938;-69
2021/09/08 11:20:18;;;;;;;5.67;4.23;;;28.00;64.90;;;;;;4975847;28;20418;-72
2021/09/08 11:23:04;;;;;;;4.43;4.03;;;27.40;67.10;;;;;;4975947;28;20387;-71
2021/09/08 11:25:35;;;;;;;4.80;4.20;;;27.10;69.00;;;;;;4975820;28;20172;-71
2021/09/08 11:28:02;;;;;;;4.97;4.50;;;26.80;70.20;;;;;;4975373;28;20395;-69
2021/09/08 11:30:36;;;;;;;4.60;4.20;;;26.70;69.90;;;;;;4976049;28;20430;-71
2021/09/08 11:33:06;;;;;;;4.10;3.80;;;26.40;70.30;;;;;;4976159;28;20721;-70
2021/09/08 11:35:37;;;;;;;3.90;3.57;;;26.30;70.00;;;;;;4975697;28;20404;-71
2021/09/08 11:38:07;;;;;;;3.73;3.40;;;26.20;72.40;;;;;;4975259;28;20410;-69
2021/09/08 11:40:33;;;;;;;4.57;4.17;;;26.10;73.00;;;;;;4958342;28;20461;-72
2021/09/08 11:42:58;;;;;;;10.90;4.73;;;26.10;72.10;;;;;;4975576;28;20748;-72
2021/09/08 11:45:28;;;;;;;4.20;3.70;;;26.10;74.20;;;;;;4975606;28;20465;-74
2021/09/08 11:47:55;;;;;;;4.97;4.13;;;26.10;74.30;;;;;;4974812;28;20173;-71
2021/09/08 11:50:20;;;;;;;4.80;3.90;;;26.20;72.90;;;;;;4975112;28;20853;-72
2021/09/08 11:52:56;;;;;;;4.17;3.77;;;26.20;70.80;;;;;;4975342;28;20387;-72
2021/09/08 11:55:33;;;;;;;5.17;4.20;;;26.20;71.70;;;;;;4974901;28;20192;-74
2021/09/08 11:58:21;;;;;;;4.27;3.80;;;26.30;71.30;;;;;;4972380;28;20406;-74
2021/09/08 12:00:58;;;;;;;6.80;4.20;;;26.30;69.40;;;;;;4974944;28;20382;-72
2021/09/08 12:03:24;;;;;;;4.33;3.93;;;26.30;70.90;;;;;;4975225;28;20930;-71
2021/09/08 12:05:50;;;;;;;4.33;3.90;;;26.30;71.00;;;;;;4973542;28;20407;-71
2021/09/08 12:08:21;;;;;;;4.33;3.87;;;26.20;72.60;;;;;;4957207;28;20390;-71
2021/09/08 12:10:48;;;;;;;4.20;3.90;;;26.20;72.90;;;;;;4975627;28;20798;-72
2021/09/08 12:13:30;;;;;;;4.00;3.60;;;26.20;72.90;;;;;;4974586;28;20434;-73
2021/09/08 12:15:57;;;;;;;4.10;3.27;;;26.30;72.50;;;;;;4975533;28;20382;-71
2021/09/08 12:18:23;;;;;;;4.13;3.73;;;26.30;72.20;;;;;;4974311;28;20435;-72
2021/09/08 12:20:49;;;;;;;4.43;4.13;;;26.30;71.10;;;;;;4974775;28;20436;-71
2021/09/08 12:23:32;;;;;;;6.13;4.37;;;26.30;70.40;;;;;;4974705;28;20230;-72
2021/09/08 12:26:09;;;;;;;5.10;3.27;;;26.30;71.20;;;;;;4975100;28;20470;-72
2021/09/08 12:28:55;;;;;;;4.73;4.33;;;26.30;72.60;;;;;;4957565;28;20413;-72
2021/09/08 12:31:21;;;;;;;3.97;3.57;;;26.30;72.00;;;;;;4974225;28;20459;-72
2021/09/08 12:34:07;;;;;;;5.50;4.17;;;26.30;71.40;;;;;;4974616;28;20779;-73
2021/09/08 12:36:33;;;;;;;3.93;3.63;;;26.30;71.90;;;;;;4974526;28;20576;-72
2021/09/08 12:39:11;;;;;;;4.70;3.53;;;26.30;70.90;;;;;;4974450;28;20479;-74
2021/09/08 12:41:38;;;;;;;4.87;4.07;;;26.30;69.70;;;;;;4974750;28;20176;-72
2021/09/08 12:44:04;;;;;;;4.47;4.03;;;26.30;70.90;;;;;;4974579;28;20430;-71
2021/09/08 12:46:46;;;;;;;3.77;3.47;;;26.40;70.40;;;;;;4974031;28;20958;-74